createdAt,value
2019-06-01T04:03:52.842Z,102106.87
2019-06-01T04:07:20.894Z,102102.68
2019-06-01T04:10:48.943Z,102103.31
2019-06-01T04:14:17.053Z,102109.16
2019-06-01T04:17:45.141Z,102097.07
2019-06-01T04:21:14.204Z,102097.28
2019-06-01T04:24:42.252Z,102098.35
2019-06-01T04:28:13.479Z,102104.57
2019-06-01T04:31:41.513Z,102106.54
2019-06-01T04:35:09.562Z,102105
2019-06-01T04:38:38.584Z,102106.62
2019-06-01T04:42:09.660Z,102108.54
2019-06-01T04:45:39.665Z,102109.26
2019-06-01T04:49:10.659Z,102104.78
2019-06-01T04:52:40.821Z,102113.48
2019-06-01T04:56:11.100Z,102111.4
2019-06-01T04:59:41.911Z,102111.87
2019-06-01T05:03:13.264Z,102107.14
2019-06-01T05:06:42.031Z,102112.94
2019-06-01T05:10:14.126Z,102103.62
2019-06-01T05:13:42.197Z,102103.84
2019-06-01T05:17:12.905Z,102101.37
2019-06-01T05:20:42.425Z,102100.28
2019-06-01T05:24:12.412Z,102099.24
2019-06-01T05:27:42.594Z,102098
2019-06-01T05:31:21.543Z,102099.2
2019-06-01T05:34:46.677Z,102095.58
2019-06-01T05:38:14.856Z,102093.6
2019-06-01T05:41:43.903Z,102086.85
2019-06-01T05:45:15.070Z,102084.22
2019-06-01T05:48:45.902Z,102088.73
2019-06-01T05:52:14.461Z,102087.17
2019-06-01T05:55:44.329Z,102080.2
2019-06-01T05:59:12.428Z,102080.34
2019-06-01T06:02:42.622Z,102077.06
2019-06-01T06:06:11.668Z,102075.28
2019-06-01T06:09:40.092Z,102075.34
2019-06-01T06:13:09.091Z,102076.31
2019-06-01T06:16:40.209Z,102074.81
2019-06-01T06:20:08.641Z,102072.71
2019-06-01T06:23:37.945Z,102081.01
2019-06-01T06:27:06.381Z,102078.9
2019-06-01T06:30:34.401Z,102071.91
2019-06-01T06:34:02.492Z,102073.81
2019-06-01T06:37:30.700Z,102077.66
2019-06-01T06:40:59.791Z,102076.98
2019-06-01T06:44:27.925Z,102074.57
2019-06-01T06:47:56.168Z,102080.35
2019-06-01T06:51:26.473Z,102076.6
2019-06-01T06:54:54.617Z,102075.79
2019-06-01T06:58:24.731Z,102080.17
2019-06-01T07:01:53.840Z,102085.6
2019-06-01T07:05:21.949Z,102076.32
2019-06-01T07:08:52.081Z,102079.89
2019-06-01T07:12:23.270Z,102074.01
2019-06-01T07:15:53.223Z,102065.87
2019-06-01T07:19:23.567Z,102073.15
2019-06-01T07:22:53.365Z,102065.54
2019-06-01T07:26:22.436Z,102067.85
2019-06-01T07:29:51.154Z,102065.92
2019-06-01T07:33:20.452Z,102074.03
2019-06-01T07:36:49.927Z,102070.98
2019-06-01T07:40:18.107Z,102073.37
2019-06-01T07:43:49.284Z,102078.39
2019-06-01T07:47:17.438Z,102080.07
2019-06-01T07:50:47.685Z,102069.04
2019-06-01T07:54:16.265Z,102067.46
2019-06-01T07:57:45.297Z,102069.44
2019-06-01T08:01:13.379Z,102061.06
2019-06-01T08:04:53.091Z,102071.66
2019-06-01T08:08:16.678Z,102065.46
2019-06-01T08:11:45.752Z,102056.42
2019-06-01T08:15:14.067Z,102063.07
2019-06-01T08:18:42.179Z,102062.84
2019-06-01T08:22:11.422Z,102055.01
2019-06-01T08:25:39.862Z,102050.45
2019-06-01T08:29:08.196Z,102045.28
2019-06-01T08:32:37.678Z,102035.42
2019-06-01T08:36:05.883Z,102028.88
2019-06-01T08:39:34.976Z,102025.45
2019-06-01T08:43:03.461Z,102016.23
2019-06-01T08:46:33.590Z,102006.42
2019-06-01T08:50:01.907Z,102002.15
2019-06-01T08:53:32.062Z,102001.33
2019-06-01T08:57:00.934Z,102004.23
2019-06-01T09:00:30.472Z,102014.54
2019-06-01T09:04:00.063Z,102018.7
2019-06-01T09:07:31.040Z,102008.71
2019-06-01T09:10:58.186Z,101999.53
2019-06-01T09:14:29.163Z,101995.76
2019-06-01T09:18:00.308Z,102018.39
2019-06-01T09:21:31.567Z,102007.85
2019-06-01T09:25:01.638Z,102009.04
2019-06-01T09:28:31.907Z,102010.04
2019-06-01T09:32:02.158Z,102007.42
2019-06-01T09:35:47.565Z,102006.32
2019-06-01T09:39:07.181Z,102002.37
2019-06-01T09:42:37.448Z,102010.97
2019-06-01T09:46:05.263Z,102017.11
2019-06-01T09:49:35.783Z,102019.73
2019-06-01T09:53:03.228Z,102021.82
2019-06-01T09:56:36.045Z,102025.07
2019-06-01T10:00:06.456Z,102027.75
2019-06-01T10:03:36.438Z,102018.34
2019-06-01T10:07:05.453Z,102014.98
2019-06-01T10:10:35.899Z,102024.4
2019-06-01T10:14:04.553Z,102011.43
2019-06-01T10:17:35.008Z,102010.89
2019-06-01T10:21:04.745Z,102007.96
2019-06-01T10:24:34.781Z,102006.64
2019-06-01T10:28:06.772Z,102003.31
2019-06-01T10:31:39.587Z,102002.76
2019-06-01T10:35:07.851Z,101994.4
2019-06-01T10:38:37.197Z,101996.1
2019-06-01T10:42:07.014Z,101997.14
2019-06-01T10:45:35.729Z,101994.21
2019-06-01T10:49:04.163Z,101997.69
2019-06-01T10:52:36.213Z,101991.75
2019-06-01T10:56:07.347Z,101995.26
2019-06-01T10:59:38.406Z,101981.96
2019-06-01T11:03:08.514Z,101982.85
2019-06-01T11:06:44.584Z,101974.15
2019-06-01T11:10:11.876Z,101973.1
2019-06-01T11:13:43.156Z,101973.51
2019-06-01T11:17:11.170Z,101988.54
2019-06-01T11:20:41.410Z,101973.85
2019-06-01T11:24:10.511Z,101965.1
2019-06-01T11:27:41.850Z,101959.79
2019-06-01T11:31:10.846Z,101966.94
2019-06-01T11:34:42.303Z,101961.45
2019-06-01T11:38:11.118Z,101956.19
2019-06-01T11:41:40.619Z,101951.59
2019-06-01T11:45:10.443Z,101958.51
2019-06-01T11:48:41.271Z,101962.51
2019-06-01T11:52:10.934Z,101967.04
2019-06-01T11:55:41.196Z,101964.65
2019-06-01T11:59:11.215Z,101964.48
2019-06-01T12:02:41.655Z,101956.63
2019-06-01T12:06:11.626Z,101955.13
2019-06-01T12:09:41.849Z,101966.35
2019-06-01T12:13:11.950Z,101948.06
2019-06-01T12:16:41.070Z,101949.05
2019-06-01T12:20:11.161Z,101939.85
2019-06-01T12:23:39.379Z,101946.11
2019-06-01T12:27:08.540Z,101937.12
2019-06-01T12:30:37.483Z,101934.84
2019-06-01T12:34:04.890Z,101940
2019-06-01T12:37:52.770Z,101933.57
2019-06-01T12:41:08.150Z,101928.92
2019-06-01T12:44:37.348Z,101925.28
2019-06-01T12:48:07.551Z,101932.36
2019-06-01T12:51:35.747Z,101926.95
2019-06-01T12:55:04.902Z,101928.69
2019-06-01T12:58:34.088Z,101925.81
2019-06-01T13:02:02.253Z,101919.76
2019-06-01T13:05:30.291Z,101915.51
2019-06-01T13:08:58.456Z,101919.09
2019-06-01T13:12:26.717Z,101922.75
2019-06-01T13:15:54.898Z,101919.46
2019-06-01T13:19:24.069Z,101916.18
2019-06-01T13:22:52.244Z,101910.5
2019-06-01T13:26:20.319Z,101915.01
2019-06-01T13:29:48.428Z,101912.39
2019-06-01T13:33:16.586Z,101911.17
2019-06-01T13:36:46.542Z,101909.58
2019-06-01T13:40:14.878Z,101908.8
2019-06-01T13:43:47.180Z,101903.89
2019-06-01T13:47:18.347Z,101901.81
2019-06-01T13:50:49.630Z,101922.44
2019-06-01T13:54:20.634Z,101906.17
2019-06-01T13:57:52.797Z,101907.11
2019-06-01T14:01:22.903Z,101911.32
2019-06-01T14:04:56.161Z,101910.98
2019-06-01T14:08:29.326Z,101902.32
2019-06-01T14:11:59.236Z,101894.98
2019-06-01T14:15:29.384Z,101900.7
2019-06-01T14:18:59.476Z,101899.24
2019-06-01T14:22:29.666Z,101898.62
2019-06-01T14:25:59.863Z,101902.45
2019-06-01T14:29:29.916Z,101898.06
2019-06-01T14:33:00.947Z,101904.2
2019-06-01T14:36:31.218Z,101909.01
2019-06-01T14:40:01.303Z,101910.25
2019-06-01T14:43:31.402Z,101904
2019-06-01T14:47:05.864Z,101917.84
2019-06-01T14:50:34.294Z,101907.96
2019-06-01T14:54:04.357Z,101917.29
2019-06-01T14:57:34.308Z,101909.54
2019-06-01T15:01:04.235Z,101906.13
2019-06-01T15:04:34.182Z,101911.32
2019-06-01T15:08:04.102Z,101901.81
2019-06-01T15:11:34.034Z,101906.68
2019-06-01T15:15:04.957Z,101898.97
2019-06-01T15:18:33.893Z,101900.74
2019-06-01T15:22:03.465Z,101899.26
2019-06-01T15:25:30.798Z,101896.14
2019-06-01T15:28:59.737Z,101902.11
2019-06-01T15:32:29.711Z,101910.26
2019-06-01T15:35:59.737Z,101905.34
2019-06-01T15:39:28.546Z,101903.7
2019-06-01T15:42:59.353Z,101891.46
2019-06-01T15:46:28.371Z,101911.6
2019-06-01T15:49:56.307Z,101894.71
2019-06-01T15:53:25.252Z,101899.5
2019-06-01T15:56:56.088Z,101895.17
2019-06-01T16:00:27.068Z,101913.6
2019-06-01T16:03:57.254Z,101908.04
2019-06-01T16:07:27.933Z,101909.71
2019-06-01T16:11:01.852Z,101906.7
2019-06-01T16:14:30.896Z,101900.64
2019-06-01T16:18:01.736Z,101912.4
2019-06-01T16:21:53.700Z,101911.07
2019-06-01T16:25:22.563Z,101907.2
2019-06-01T16:28:50.538Z,101906.48
2019-06-01T16:32:18.511Z,101895.07
2019-06-01T16:35:46.491Z,101888.68
2019-06-01T16:39:14.439Z,101895.42
2019-06-01T16:42:42.375Z,101898.03
2019-06-01T16:46:10.312Z,101895.73
2019-06-01T16:49:38.291Z,101889.1
2019-06-01T16:53:07.289Z,101903.18
2019-06-01T16:56:35.850Z,101898.54
2019-06-01T17:00:06.957Z,101881.11
2019-06-01T17:03:34.712Z,101883.68
2019-06-01T17:07:05.505Z,101888.37
2019-06-01T17:10:35.556Z,101891
2019-06-01T17:14:03.477Z,101894.5
2019-06-01T17:17:32.416Z,101903.5
2019-06-01T17:21:03.522Z,101900.18
2019-06-01T17:24:33.257Z,101897.67
2019-06-01T17:28:03.109Z,101903.29
2019-06-01T17:31:32.089Z,101899.75
2019-06-01T17:35:00.680Z,101903.78
2019-06-01T17:38:31.433Z,101899.93
2019-06-01T17:42:00.310Z,101895.03
2019-06-01T17:45:29.262Z,101901.37
2019-06-01T17:48:57.202Z,101902.1
2019-06-01T17:52:25.180Z,101900.17
2019-06-01T17:55:53.917Z,101904.8
2019-06-01T17:59:21.835Z,101907.85
2019-06-01T18:02:49.802Z,101903.92
2019-06-01T18:06:17.787Z,101907.85
2019-06-01T18:09:46.733Z,101910.12
2019-06-01T18:13:14.664Z,101909.02
2019-06-01T18:16:42.606Z,101900.65
2019-06-01T18:20:12.862Z,101906.25
2019-06-01T18:23:40.535Z,101900.37
2019-06-01T18:27:08.907Z,101903.51
2019-06-01T18:30:36.876Z,101911.21
2019-06-01T18:34:05.442Z,101906.69
2019-06-01T18:37:33.746Z,101901
2019-06-01T18:41:10.501Z,101903.42
2019-06-01T18:44:37.562Z,101899.67
2019-06-01T18:48:06.049Z,101893.73
2019-06-01T18:51:34.423Z,101900.53
2019-06-01T18:55:02.360Z,101895.23
2019-06-01T18:58:32.313Z,101898.96
2019-06-01T19:02:00.254Z,101897.37
2019-06-01T19:05:29.204Z,101896.75
2019-06-01T19:08:57.688Z,101902.95
2019-06-01T19:12:26.669Z,101901.82
2019-06-01T19:15:54.771Z,101904.37
2019-06-01T19:19:22.909Z,101903.81
2019-06-01T19:22:51.731Z,101906.07
2019-06-01T19:26:19.843Z,101904.01
2019-06-01T19:29:48.040Z,101904.84
2019-06-01T19:33:19.579Z,101905.43
2019-06-01T19:36:47.819Z,101912.53
2019-06-01T19:40:17.965Z,101908.35
2019-06-01T19:43:46.027Z,101913.2
2019-06-01T19:47:16.027Z,101915.19
2019-06-01T19:50:45.965Z,101910.31
2019-06-01T19:54:16.945Z,101904.98
2019-06-01T19:57:44.302Z,101914.32
2019-06-01T20:01:18.392Z,101918.14
2019-06-01T20:04:46.836Z,101920.78
2019-06-01T20:08:18.050Z,101916.17
2019-06-01T20:12:01.200Z,101915.79
2019-06-01T20:15:22.066Z,101917.09
2019-06-01T20:18:50.685Z,101923.14
2019-06-01T20:22:19.015Z,101926.89
2019-06-01T20:25:46.660Z,101933.82
2019-06-01T20:29:17.650Z,101932.32
2019-06-01T20:32:47.611Z,101936.76
2019-06-01T20:36:16.401Z,101939.92
2019-06-01T20:39:44.349Z,101945
2019-06-01T20:43:14.665Z,101947.29
2019-06-01T20:46:46.344Z,101948.04
2019-06-01T20:50:16.632Z,101944.03
2019-06-01T20:53:47.404Z,101942.93
2019-06-01T20:57:19.581Z,101950.78
2019-06-01T21:00:49.197Z,101954.04
2019-06-01T21:04:20.250Z,101945.35
2019-06-01T21:07:50.334Z,101949.68
2019-06-01T21:11:20.503Z,101942.78
2019-06-01T21:14:49.498Z,101941.42
2019-06-01T21:18:20.844Z,101939.14
2019-06-01T21:21:51.142Z,101943.96
2019-06-01T21:25:20.664Z,101944.26
2019-06-01T21:28:50.079Z,101943.6
2019-06-01T21:32:21.310Z,101944.57
2019-06-01T21:35:50.000Z,101937.61
2019-06-01T21:39:19.244Z,101943.42
2019-06-01T21:43:02.948Z,101945.43
2019-06-01T21:46:28.975Z,101942.37
2019-06-01T21:50:00.062Z,101935.64
2019-06-01T21:53:32.097Z,101939.4
2019-06-01T21:57:08.411Z,101947.63
